Terminal Aerodrome Forecast
Issued by NWS

Home | Current Version | Previous Version | Text Only | Print | Product List | Glossary On
Versions: 1 2 3 4 5 6 7 8 9 10 11 12 13 14 15
000
FTUS45 KREV 231700
TAFMMH
TAF
KMMH 231720Z 2318/2418 24008KT P6SM SCT180
     FM232200 25009G17KT P6SM SCT180
     FM240200 27010KT P6SM SKC=

USA.gov is the U.S. government's official web portal to all federal, state and local government web resources and services.